Time;durP1;ratioP1;P1;durP2;ratioP2;P2;SDS_P1;SDS_P2;PMS_P1;PMS_P2;Temp;Humidity;BMP_temperature;BMP_pressure;BME280_temperature;BME280_humidity;BME280_pressure;Samples;Min_cycle;Max_cycle;Signal;HPM_P1;HPM_P2
2022/07/25 00:00:25;;;;;;;4.97;4.47;;;18.30;99.90;;;;;;4999361;28;20162;-66
2022/07/25 00:02:52;;;;;;;4.35;3.90;;;18.30;99.90;;;;;;5005347;28;20389;-68
2022/07/25 00:05:19;;;;;;;3.92;3.60;;;18.40;99.90;;;;;;4998978;28;20666;-66
2022/07/25 00:07:47;;;;;;;5.22;4.47;;;18.40;99.90;;;;;;5006320;28;20547;-66
2022/07/25 00:10:14;;;;;;;4.30;3.80;;;18.40;99.90;;;;;;5002602;28;20762;-66
2022/07/25 00:12:41;;;;;;;6.65;4.10;;;18.40;99.90;;;;;;4999506;28;20373;-68
2022/07/25 00:15:08;;;;;;;5.10;3.63;;;18.40;99.90;;;;;;4995423;28;20108;-68
2022/07/25 00:17:36;;;;;;;5.40;3.60;;;18.40;99.90;;;;;;5001917;28;20046;-66
2022/07/25 00:20:03;;;;;;;6.32;4.07;;;18.40;99.90;;;;;;5002374;28;20042;-68
2022/07/25 00:22:30;;;;;;;4.10;3.72;;;18.40;99.90;;;;;;5004151;28;20805;-67
2022/07/25 00:24:57;;;;;;;3.80;3.50;;;18.40;99.90;;;;;;4999623;28;20077;-69
2022/07/25 00:27:24;;;;;;;5.10;4.60;;;18.40;99.90;;;;;;4999699;28;20588;-67
2022/07/25 00:29:51;;;;;;;5.47;5.07;;;18.40;99.90;;;;;;4998691;28;20113;-67
2022/07/25 00:32:18;;;;;;;4.15;3.75;;;18.40;99.90;;;;;;5002528;28;20372;-68
2022/07/25 00:34:45;;;;;;;3.55;3.25;;;18.40;99.90;;;;;;5000583;28;20070;-66
2022/07/25 00:37:12;;;;;;;4.28;3.90;;;18.40;99.90;;;;;;4998881;28;20045;-67
2022/07/25 00:39:39;;;;;;;4.57;4.18;;;18.30;99.90;;;;;;5000673;28;20065;-66
2022/07/25 00:42:06;;;;;;;8.95;4.53;;;18.30;99.90;;;;;;5000452;28;20103;-67
2022/07/25 00:44:33;;;;;;;6.90;4.28;;;18.30;99.90;;;;;;5000807;28;20112;-71
2022/07/25 00:47:00;;;;;;;4.93;4.38;;;18.30;99.90;;;;;;4994222;28;20499;-67
2022/07/25 00:49:27;;;;;;;5.55;4.22;;;18.30;99.90;;;;;;5000149;28;20129;-68
2022/07/25 00:51:55;;;;;;;4.43;3.97;;;18.30;99.90;;;;;;5001177;28;20049;-70
2022/07/25 00:54:22;;;;;;;7.57;4.50;;;18.30;99.90;;;;;;5001263;28;20057;-66
2022/07/25 00:56:49;;;;;;;4.80;4.32;;;18.30;99.90;;;;;;5002535;28;20057;-67
2022/07/25 00:59:17;;;;;;;6.55;4.60;;;18.20;99.90;;;;;;4999389;28;20723;-66
2022/07/25 01:01:46;;;;;;;7.22;5.32;;;18.20;99.90;;;;;;4994839;28;20141;-66
2022/07/25 01:04:15;;;;;;;5.25;4.18;;;18.20;99.90;;;;;;4998856;28;20089;-72
2022/07/25 01:06:43;;;;;;;6.55;4.00;;;18.20;99.90;;;;;;5003650;28;20073;-70
2022/07/25 01:09:10;;;;;;;5.43;4.03;;;18.10;99.90;;;;;;4999653;28;20106;-67
2022/07/25 01:11:37;;;;;;;5.70;4.63;;;18.10;99.90;;;;;;5002097;28;20050;-71
2022/07/25 01:14:05;;;;;;;4.32;3.92;;;18.10;99.90;;;;;;4994469;28;20058;-66
2022/07/25 01:16:32;;;;;;;4.43;3.88;;;18.10;99.90;;;;;;4994970;28;20048;-72
2022/07/25 01:18:59;;;;;;;4.65;4.18;;;18.10;99.90;;;;;;4993877;28;20046;-68
2022/07/25 01:21:26;;;;;;;4.25;3.85;;;18.10;99.90;;;;;;5000510;28;20058;-66
2022/07/25 01:23:53;;;;;;;7.22;4.85;;;18.00;99.90;;;;;;4997618;28;20499;-66
2022/07/25 01:26:20;;;;;;;4.68;4.28;;;18.00;99.90;;;;;;5001634;28;20144;-70
2022/07/25 01:28:47;;;;;;;5.40;4.47;;;18.00;99.90;;;;;;4996355;28;20918;-68
2022/07/25 01:31:14;;;;;;;4.93;4.53;;;18.00;99.90;;;;;;4999101;28;20088;-69
2022/07/25 01:33:41;;;;;;;5.78;4.28;;;18.00;99.90;;;;;;4995506;28;20049;-69
2022/07/25 01:36:08;;;;;;;6.85;4.35;;;18.00;99.90;;;;;;4998779;28;20042;-67
2022/07/25 01:38:35;;;;;;;6.43;5.10;;;18.00;99.90;;;;;;5000668;28;20057;-66
2022/07/25 01:41:02;;;;;;;4.93;4.30;;;18.00;99.90;;;;;;4997169;28;20165;-71
2022/07/25 01:43:29;;;;;;;4.60;4.25;;;18.00;99.90;;;;;;4999885;28;20034;-68
2022/07/25 01:45:56;;;;;;;4.25;3.95;;;18.00;99.90;;;;;;4998916;28;20417;-68
2022/07/25 01:48:23;;;;;;;4.45;4.05;;;18.00;99.90;;;;;;4998106;28;20061;-71
2022/07/25 01:50:50;;;;;;;6.13;4.82;;;18.00;99.90;;;;;;4991982;28;20592;-69
2022/07/25 01:53:18;;;;;;;5.63;4.35;;;18.10;99.90;;;;;;4996420;28;20045;-68
2022/07/25 01:55:45;;;;;;;9.18;4.47;;;18.10;99.90;;;;;;5000556;28;20050;-70
2022/07/25 01:58:12;;;;;;;5.07;4.57;;;18.10;99.90;;;;;;4997227;28;20705;-67
2022/07/25 02:00:40;;;;;;;3.60;3.30;;;18.10;99.90;;;;;;4993496;28;20104;-69
2022/07/25 02:05:52;;;;;;;5.80;3.65;;;18.10;99.90;;;;;;4992209;28;20094;-70
2022/07/25 02:08:19;;;;;;;5.38;4.97;;;18.10;99.90;;;;;;4998339;28;20073;-70
2022/07/25 02:10:46;;;;;;;5.00;3.75;;;18.10;99.90;;;;;;5000452;28;20046;-69
2022/07/25 02:13:13;;;;;;;4.25;3.63;;;18.00;99.90;;;;;;4999265;28;20057;-65
2022/07/25 02:15:40;;;;;;;4.47;4.15;;;18.00;99.90;;;;;;4996535;28;20530;-68
2022/07/25 02:18:08;;;;;;;5.05;4.35;;;18.00;99.90;;;;;;4999998;28;20516;-68
2022/07/25 02:20:35;;;;;;;8.00;4.15;;;17.90;99.90;;;;;;4996281;28;20077;-66
2022/07/25 02:23:03;;;;;;;3.90;3.25;;;17.90;99.90;;;;;;4995717;28;20074;-67
2022/07/25 02:25:32;;;;;;;3.83;3.42;;;17.90;99.90;;;;;;5001868;28;20597;-69
2022/07/25 02:27:59;;;;;;;4.43;3.95;;;17.90;99.90;;;;;;4999509;28;20069;-67
2022/07/25 02:30:27;;;;;;;4.47;4.18;;;17.90;99.90;;;;;;4998102;28;20403;-71
2022/07/25 02:32:54;;;;;;;4.68;4.38;;;17.90;99.90;;;;;;4996519;28;20065;-69
2022/07/25 02:35:21;;;;;;;5.90;3.70;;;17.90;99.90;;;;;;4997549;28;20488;-67
2022/07/25 02:37:48;;;;;;;4.43;3.80;;;17.90;99.90;;;;;;4993565;28;20145;-69
2022/07/25 02:40:15;;;;;;;6.63;4.95;;;17.90;99.90;;;;;;4998711;28;20050;-67
2022/07/25 02:42:42;;;;;;;4.25;3.88;;;17.90;99.90;;;;;;5000931;28;20453;-68
2022/07/25 02:45:09;;;;;;;4.32;4.03;;;17.90;99.90;;;;;;4998419;28;20053;-72
2022/07/25 02:47:36;;;;;;;4.55;4.15;;;17.90;99.90;;;;;;5001821;28;20116;-67
2022/07/25 02:50:03;;;;;;;4.35;3.95;;;17.90;99.90;;;;;;4999303;28;20045;-69
2022/07/25 02:52:30;;;;;;;5.47;4.10;;;17.90;99.90;;;;;;4995305;28;20670;-71
2022/07/25 02:54:57;;;;;;;4.80;4.43;;;17.90;99.90;;;;;;4997420;28;20065;-67
2022/07/25 02:57:24;;;;;;;4.88;4.47;;;18.00;99.90;;;;;;4995688;28;20070;-66
2022/07/25 02:59:51;;;;;;;6.00;4.00;;;17.90;99.90;;;;;;4995509;28;20052;-70
2022/07/25 03:02:18;;;;;;;4.45;3.50;;;17.90;99.90;;;;;;4996934;28;20124;-66
2022/07/25 03:04:45;;;;;;;8.43;4.00;;;17.90;99.90;;;;;;4998796;28;20353;-66
2022/07/25 03:07:12;;;;;;;6.70;3.92;;;17.90;99.90;;;;;;4997021;28;20069;-67
2022/07/25 03:09:39;;;;;;;4.55;3.97;;;17.90;99.90;;;;;;4995493;28;20455;-68
2022/07/25 03:12:05;;;;;;;4.05;3.75;;;18.00;99.90;;;;;;5002886;28;20101;-67
2022/07/25 03:14:32;;;;;;;5.28;4.38;;;18.00;99.90;;;;;;5002358;28;20076;-67
2022/07/25 03:16:59;;;;;;;5.50;3.92;;;18.00;99.90;;;;;;4998492;28;20049;-73
2022/07/25 03:19:27;;;;;;;5.57;4.07;;;18.00;99.90;;;;;;5003503;28;20050;-67
2022/07/25 03:21:54;;;;;;;5.15;3.95;;;18.00;99.90;;;;;;4996675;28;20436;-71
2022/07/25 03:24:21;;;;;;;6.00;3.33;;;18.00;99.90;;;;;;4996817;28;20141;-69
2022/07/25 03:26:48;;;;;;;4.60;4.20;;;18.10;99.90;;;;;;5003674;28;20089;-67
2022/07/25 03:29:15;;;;;;;4.45;4.05;;;18.00;99.90;;;;;;4995156;28;20112;-68
2022/07/25 03:31:42;;;;;;;3.60;3.30;;;18.10;99.90;;;;;;5001675;28;20054;-67
2022/07/25 03:34:09;;;;;;;4.65;3.90;;;18.10;99.90;;;;;;5001146;28;20065;-67
2022/07/25 03:36:36;;;;;;;5.25;4.75;;;18.10;99.90;;;;;;5003024;28;20101;-67
2022/07/25 03:39:03;;;;;;;4.25;3.85;;;18.20;99.90;;;;;;4993885;28;20054;-71
2022/07/25 03:41:31;;;;;;;4.60;3.97;;;18.20;99.90;;;;;;5003357;28;20041;-70
2022/07/25 03:43:58;;;;;;;4.47;4.07;;;18.20;99.90;;;;;;5003240;28;20096;-66
2022/07/25 03:46:25;;;;;;;6.85;4.10;;;18.30;99.90;;;;;;4998756;28;20037;-70
2022/07/25 03:48:54;;;;;;;3.97;3.67;;;18.40;99.90;;;;;;5002288;28;20054;-69
2022/07/25 03:51:21;;;;;;;3.60;3.30;;;18.40;99.90;;;;;;4997809;28;20488;-67
2022/07/25 03:54:03;;;;;;;4.55;4.15;;;18.40;99.90;;;;;;5001115;28;20137;-71
2022/07/25 03:56:35;;;;;;;5.28;3.97;;;18.50;99.90;;;;;;4994044;28;20054;-69
2022/07/25 03:59:11;;;;;;;4.05;3.47;;;18.50;99.90;;;;;;5001977;28;20440;-67
2022/07/25 04:01:38;;;;;;;6.47;4.72;;;18.60;99.90;;;;;;5002983;28;20120;-68
2022/07/25 04:04:05;;;;;;;4.47;4.00;;;18.60;99.90;;;;;;5002338;28;20041;-67
2022/07/25 04:06:33;;;;;;;4.25;3.85;;;18.60;99.90;;;;;;5000092;28;20309;-70
2022/07/25 04:09:00;;;;;;;4.07;3.78;;;18.70;99.90;;;;;;4996695;28;20451;-67
2022/07/25 04:11:29;;;;;;;4.75;4.32;;;18.70;99.90;;;;;;4995451;28;20089;-67
2022/07/25 04:13:57;;;;;;;4.97;3.67;;;18.70;99.90;;;;;;4994934;28;20081;-69
2022/07/25 04:16:24;;;;;;;4.10;3.70;;;18.70;99.90;;;;;;4979801;28;20054;-69
2022/07/25 04:18:53;;;;;;;5.50;4.73;;;18.70;99.90;;;;;;4982416;28;20744;-70
2022/07/25 04:21:22;;;;;;;4.43;3.60;;;18.70;99.90;;;;;;4977929;28;20054;-70
2022/07/25 04:23:49;;;;;;;4.63;4.22;;;18.60;99.90;;;;;;4980396;28;20077;-68
2022/07/25 04:26:17;;;;;;;3.83;3.10;;;18.70;99.90;;;;;;4972948;28;20481;-72
2022/07/25 04:28:44;;;;;;;4.90;4.50;;;18.60;99.90;;;;;;4982679;28;20132;-66
2022/07/25 04:31:11;;;;;;;4.05;3.65;;;18.60;99.90;;;;;;4994994;28;20065;-70
2022/07/25 04:33:39;;;;;;;4.00;3.70;;;18.60;99.90;;;;;;5001477;28;20472;-68
2022/07/25 04:36:06;;;;;;;5.97;4.05;;;18.70;99.90;;;;;;5001983;28;20140;-68
2022/07/25 04:38:34;;;;;;;3.42;3.13;;;18.70;99.90;;;;;;4997071;28;20441;-67
2022/07/25 04:41:01;;;;;;;13.98;4.28;;;18.70;99.90;;;;;;4999555;28;20179;-67
2022/07/25 04:43:28;;;;;;;4.68;4.18;;;18.80;99.90;;;;;;4991434;28;21686;-68
2022/07/25 04:45:55;;;;;;;5.68;3.80;;;18.80;99.90;;;;;;4988394;28;20133;-69
2022/07/25 04:48:22;;;;;;;4.57;3.47;;;18.90;99.90;;;;;;5001655;28;20236;-69
2022/07/25 04:50:49;;;;;;;3.72;3.42;;;19.00;99.90;;;;;;5001797;28;20045;-67
2022/07/25 04:53:16;;;;;;;4.70;3.92;;;19.00;99.90;;;;;;4997455;28;20073;-67
2022/07/25 04:55:43;;;;;;;5.72;3.97;;;19.00;99.90;;;;;;5000833;28;20388;-67
2022/07/25 04:58:10;;;;;;;4.03;3.72;;;19.00;99.90;;;;;;4993993;28;20133;-71
2022/07/25 05:00:37;;;;;;;6.32;4.22;;;19.00;99.90;;;;;;4999128;28;20074;-68
2022/07/25 05:03:04;;;;;;;4.22;3.65;;;19.10;99.90;;;;;;4997931;28;20105;-67
2022/07/25 05:05:31;;;;;;;4.57;4.18;;;19.10;99.90;;;;;;5001976;28;20144;-67
2022/07/25 05:07:59;;;;;;;9.60;4.32;;;19.10;99.90;;;;;;4999035;28;20069;-68
2022/07/25 05:10:28;;;;;;;5.38;4.50;;;19.10;99.90;;;;;;4996344;28;20924;-69
2022/07/25 05:12:55;;;;;;;8.80;4.53;;;19.20;99.90;;;;;;4997471;28;20497;-70
2022/07/25 05:15:22;;;;;;;10.40;4.95;;;19.10;99.90;;;;;;4993972;28;20105;-70
2022/07/25 05:17:50;;;;;;;4.20;3.80;;;19.10;99.90;;;;;;4998066;28;20127;-69
2022/07/25 05:20:17;;;;;;;4.88;3.53;;;19.20;99.90;;;;;;5001897;28;20515;-69
2022/07/25 05:22:44;;;;;;;4.20;3.78;;;19.20;99.90;;;;;;4998684;28;20100;-69
2022/07/25 05:25:11;;;;;;;4.30;3.92;;;19.20;99.90;;;;;;4995290;28;20128;-72
2022/07/25 05:27:38;;;;;;;4.88;4.10;;;19.30;99.90;;;;;;4999072;28;20141;-70
2022/07/25 05:30:07;;;;;;;5.47;3.72;;;19.30;99.90;;;;;;4998163;28;20053;-67
2022/07/25 05:32:34;;;;;;;5.80;4.15;;;19.30;99.90;;;;;;4997704;28;20085;-67
2022/07/25 05:35:01;;;;;;;9.52;5.95;;;19.30;99.90;;;;;;4996658;28;20688;-68
2022/07/25 05:37:28;;;;;;;4.30;3.90;;;19.30;99.90;;;;;;4999401;28;20687;-71
2022/07/25 05:39:55;;;;;;;7.15;4.53;;;19.30;99.90;;;;;;4999433;28;20046;-68
2022/07/25 05:42:22;;;;;;;4.53;3.95;;;19.30;99.90;;;;;;5002389;28;20138;-67
2022/07/25 05:44:49;;;;;;;4.38;3.90;;;19.30;99.90;;;;;;4996644;28;20069;-71
2022/07/25 05:47:16;;;;;;;8.38;4.65;;;19.30;99.90;;;;;;4998694;28;20045;-67
2022/07/25 05:49:43;;;;;;;4.30;3.63;;;19.40;99.90;;;;;;5000901;28;20135;-68
2022/07/25 05:52:10;;;;;;;5.85;3.92;;;19.50;99.90;;;;;;4997718;28;20069;-71
2022/07/25 05:54:40;;;;;;;6.50;5.90;;;19.60;99.90;;;;;;4994290;28;20106;-67
2022/07/25 05:57:06;;;;;;;6.53;5.40;;;19.70;99.90;;;;;;4997882;28;20443;-71
2022/07/25 05:59:33;;;;;;;4.93;4.53;;;19.80;99.90;;;;;;4995050;28;20100;-69
2022/07/25 06:02:01;;;;;;;8.45;4.82;;;19.80;99.90;;;;;;4995523;28;20117;-69
2022/07/25 06:04:28;;;;;;;6.63;6.00;;;20.00;99.90;;;;;;5001379;28;20075;-69
2022/07/25 06:06:55;;;;;;;6.43;5.82;;;20.10;99.90;;;;;;4999129;28;20467;-67
2022/07/25 06:09:22;;;;;;;8.60;4.53;;;20.10;99.90;;;;;;4996637;28;20069;-71
2022/07/25 06:11:49;;;;;;;4.30;3.90;;;20.10;99.90;;;;;;5001187;28;20104;-67
2022/07/25 06:14:28;;;;;;;5.47;4.97;;;20.10;99.90;;;;;;4996279;28;20116;-68
2022/07/25 06:16:55;;;;;;;4.40;3.92;;;20.20;99.90;;;;;;4995825;28;20591;-68
2022/07/25 06:19:22;;;;;;;6.80;4.85;;;20.20;99.90;;;;;;4996255;28;20061;-67
2022/07/25 06:21:49;;;;;;;7.53;5.13;;;20.20;99.90;;;;;;4999556;28;20077;-67
2022/07/25 06:24:16;;;;;;;6.32;5.10;;;20.30;99.90;;;;;;4995267;28;20041;-69
2022/07/25 06:26:43;;;;;;;6.47;3.67;;;20.40;99.90;;;;;;4997608;28;20492;-70
2022/07/25 06:29:11;;;;;;;4.60;4.20;;;20.40;99.90;;;;;;4997073;28;20070;-67
2022/07/25 06:31:37;;;;;;;6.13;4.47;;;20.40;99.90;;;;;;4998019;28;20466;-69
2022/07/25 06:34:04;;;;;;;5.90;4.68;;;20.50;99.90;;;;;;4992124;28;20038;-67
2022/07/25 06:36:32;;;;;;;9.10;6.22;;;20.50;99.90;;;;;;4995615;28;20065;-71
2022/07/25 06:39:00;;;;;;;4.85;4.45;;;20.50;99.90;;;;;;4996129;28;20107;-69
2022/07/25 06:41:27;;;;;;;5.60;4.50;;;20.60;99.90;;;;;;4995904;28;20069;-67
2022/07/25 06:43:53;;;;;;;9.60;6.45;;;20.60;99.90;;;;;;4995952;28;20085;-68
2022/07/25 06:46:20;;;;;;;4.78;4.38;;;20.70;99.90;;;;;;4999140;28;20061;-67
2022/07/25 06:48:47;;;;;;;6.25;5.57;;;20.70;99.90;;;;;;4991989;28;20060;-68
2022/07/25 06:51:14;;;;;;;4.57;4.18;;;20.80;99.90;;;;;;4996799;28;20475;-66
2022/07/25 06:53:41;;;;;;;5.53;5.03;;;20.80;99.90;;;;;;4997499;28;20126;-67
2022/07/25 06:56:08;;;;;;;6.22;4.80;;;20.80;99.90;;;;;;5001390;28;20136;-69
2022/07/25 06:58:40;;;;;;;5.18;4.72;;;20.90;99.90;;;;;;4998698;28;20050;-73
2022/07/25 07:01:06;;;;;;;4.97;4.60;;;20.90;99.90;;;;;;4996023;28;20185;-72
2022/07/25 07:03:36;;;;;;;5.80;5.28;;;21.00;99.90;;;;;;4997339;28;20396;-67
2022/07/25 07:06:05;;;;;;;6.18;5.57;;;21.10;99.90;;;;;;4994248;28;20046;-67
2022/07/25 07:08:32;;;;;;;5.63;5.13;;;21.10;99.90;;;;;;4999896;28;20322;-69
2022/07/25 07:11:00;;;;;;;5.28;4.78;;;21.20;99.90;;;;;;4994399;28;20108;-70
2022/07/25 07:13:27;;;;;;;5.03;4.45;;;21.30;99.90;;;;;;4958334;28;1137086;-69
2022/07/25 07:15:54;;;;;;;6.53;4.78;;;21.40;99.90;;;;;;5000716;28;20149;-72
2022/07/25 07:18:21;;;;;;;4.70;4.00;;;21.60;99.90;;;;;;4993995;28;20144;-68
2022/07/25 07:20:49;;;;;;;6.03;4.40;;;21.80;99.90;;;;;;4990973;28;20141;-70
2022/07/25 07:23:16;;;;;;;4.57;4.13;;;21.80;99.90;;;;;;4989395;28;20933;-70
2022/07/25 07:25:45;;;;;;;4.40;3.97;;;21.90;99.90;;;;;;4996550;28;20045;-67
2022/07/25 07:28:13;;;;;;;4.95;4.45;;;22.00;99.90;;;;;;4997195;28;20045;-70
2022/07/25 07:30:41;;;;;;;5.45;4.95;;;22.00;99.90;;;;;;4998140;28;20045;-71
2022/07/25 07:33:28;;;;;;;5.85;4.70;;;21.90;99.90;;;;;;4996352;28;20041;-69
2022/07/25 07:35:55;;;;;;;4.82;4.32;;;21.90;99.90;;;;;;4994822;28;20377;-73
2022/07/25 07:38:24;;;;;;;7.03;5.30;;;22.00;99.90;;;;;;4997397;28;20638;-68
2022/07/25 07:40:51;;;;;;;6.57;4.50;;;22.00;99.90;;;;;;4998541;28;20090;-69
2022/07/25 07:43:19;;;;;;;7.50;4.65;;;22.10;99.90;;;;;;4993208;28;20169;-68
2022/07/25 07:45:46;;;;;;;5.32;4.78;;;22.20;99.90;;;;;;4997061;28;20052;-67
2022/07/25 07:48:13;;;;;;;4.82;4.45;;;22.20;99.90;;;;;;4997735;28;20100;-72
2022/07/25 07:50:40;;;;;;;8.48;5.45;;;22.20;99.90;;;;;;4998135;28;20057;-69
2022/07/25 07:53:07;;;;;;;9.32;4.53;;;22.30;99.90;;;;;;4994206;28;20042;-68
2022/07/25 07:55:44;;;;;;;4.07;3.65;;;22.40;99.90;;;;;;4995624;28;20124;-69
2022/07/25 07:58:14;;;;;;;5.10;4.70;;;22.50;99.90;;;;;;4999136;28;20447;-69
2022/07/25 08:00:46;;;;;;;4.78;4.38;;;22.50;99.90;;;;;;4999118;28;21613;-69
2022/07/25 08:03:18;;;;;;;4.57;3.97;;;22.50;99.90;;;;;;4998799;28;20648;-69
2022/07/25 08:05:47;;;;;;;3.97;3.67;;;22.70;99.90;;;;;;5001340;28;20049;-69
2022/07/25 08:08:15;;;;;;;5.20;3.88;;;22.80;99.90;;;;;;4997471;28;20057;-67
2022/07/25 08:10:44;;;;;;;4.05;3.70;;;22.90;99.90;;;;;;4997774;28;20921;-70
2022/07/25 08:13:23;;;;;;;4.22;3.90;;;23.00;99.90;;;;;;5001290;28;20084;-71
2022/07/25 08:15:56;;;;;;;4.20;3.70;;;23.00;99.90;;;;;;5002325;28;20050;-67
2022/07/25 08:18:24;;;;;;;3.67;3.38;;;23.00;99.90;;;;;;4993170;28;20261;-76
2022/07/25 08:20:52;;;;;;;4.30;3.92;;;23.10;99.90;;;;;;5000539;28;20129;-70
2022/07/25 08:23:19;;;;;;;4.72;3.95;;;23.20;99.90;;;;;;4999221;28;20878;-69
2022/07/25 08:25:46;;;;;;;5.43;4.88;;;23.30;99.90;;;;;;4995795;28;20080;-74
2022/07/25 08:28:13;;;;;;;4.25;3.63;;;23.30;99.90;;;;;;5000862;28;20810;-72
2022/07/25 08:30:41;;;;;;;5.38;4.97;;;23.30;99.90;;;;;;5000931;28;20069;-68
2022/07/25 08:33:11;;;;;;;3.75;3.45;;;23.30;99.90;;;;;;4997673;28;20081;-75
2022/07/25 08:35:40;;;;;;;3.72;3.40;;;23.20;99.90;;;;;;4999440;28;20050;-72
2022/07/25 08:38:10;;;;;;;2.90;2.63;;;23.20;99.90;;;;;;4998164;28;20170;-66
2022/07/25 08:40:37;;;;;;;4.07;2.85;;;23.30;99.90;;;;;;4992694;28;20050;-73
2022/07/25 08:43:04;;;;;;;3.08;2.70;;;23.40;99.90;;;;;;4994438;28;20095;-69
2022/07/25 08:45:32;;;;;;;2.58;2.38;;;23.50;99.90;;;;;;5000744;28;20158;-70
2022/07/25 08:47:59;;;;;;;7.25;3.45;;;23.50;99.90;;;;;;5001827;28;20101;-67
2022/07/25 08:50:28;;;;;;;5.03;2.90;;;23.50;99.90;;;;;;5000269;28;20457;-68
2022/07/25 08:52:55;;;;;;;2.85;2.30;;;23.60;99.90;;;;;;5000515;28;20081;-68
2022/07/25 08:55:45;;;;;;;2.45;2.20;;;23.70;99.90;;;;;;4999682;28;20045;-71
2022/07/25 08:58:16;;;;;;;1.85;1.63;;;23.80;99.90;;;;;;5000803;28;20057;-69
2022/07/25 09:00:43;;;;;;;2.58;2.15;;;23.70;99.90;;;;;;4999438;28;20069;-69
2022/07/25 09:03:11;;;;;;;2.15;1.70;;;23.80;99.90;;;;;;4994681;28;20072;-67
2022/07/25 09:05:39;;;;;;;2.95;1.73;;;23.90;99.90;;;;;;5000934;28;20046;-68
2022/07/25 09:08:15;;;;;;;4.82;2.25;;;24.00;99.90;;;;;;4996110;28;20096;-68
2022/07/25 09:10:47;;;;;;;2.63;1.73;;;24.10;99.90;;;;;;4999866;28;20142;-71
2022/07/25 09:13:15;;;;;;;3.78;1.92;;;24.20;99.90;;;;;;4991056;28;20049;-68
2022/07/25 09:15:47;;;;;;;4.38;1.70;;;24.20;99.90;;;;;;4993415;28;20498;-68
2022/07/25 09:18:17;;;;;;;3.30;1.65;;;24.10;99.90;;;;;;5002356;28;20042;-68
2022/07/25 09:20:57;;;;;;;2.75;1.75;;;24.00;99.90;;;;;;5000886;28;20046;-68
2022/07/25 09:23:33;;;;;;;1.92;1.70;;;23.90;99.90;;;;;;4997510;28;20049;-71
2022/07/25 09:26:11;;;;;;;2.13;1.95;;;23.90;99.90;;;;;;4995517;28;20046;-68
2022/07/25 09:28:41;;;;;;;2.30;1.67;;;23.90;99.90;;;;;;4992563;28;20112;-68
2022/07/25 09:31:11;;;;;;;4.75;1.95;;;23.80;99.90;;;;;;5001186;28;20168;-73
2022/07/25 09:33:55;;;;;;;5.00;1.75;;;23.90;99.90;;;;;;5003320;28;20084;-69
2022/07/25 09:36:23;;;;;;;1.67;1.48;;;23.90;99.90;;;;;;5001821;28;20046;-69
2022/07/25 09:38:56;;;;;;;1.92;1.58;;;23.90;99.90;;;;;;4999562;28;20049;-69
2022/07/25 09:41:33;;;;;;;2.22;1.80;;;23.90;99.90;;;;;;4999965;28;20102;-69
2022/07/25 09:44:01;;;;;;;2.28;2.08;;;23.80;99.90;;;;;;4990454;28;20166;-70
2022/07/25 09:46:30;;;;;;;1.92;1.45;;;23.60;99.90;;;;;;4998019;28;20081;-69
2022/07/25 09:48:59;;;;;;;1.63;1.52;;;23.70;99.90;;;;;;5003328;28;20126;-69
2022/07/25 09:51:27;;;;;;;3.78;2.03;;;23.70;99.90;;;;;;5003735;28;20045;-69
2022/07/25 09:53:54;;;;;;;3.85;1.85;;;23.80;99.90;;;;;;5003268;28;20133;-68
2022/07/25 09:56:21;;;;;;;2.85;1.88;;;24.00;99.90;;;;;;5003141;28;20070;-69
2022/07/25 09:58:48;;;;;;;2.30;2.13;;;24.10;99.90;;;;;;5000123;28;20116;-69
2022/07/25 10:01:24;;;;;;;2.60;2.17;;;24.20;99.90;;;;;;4993958;28;20100;-68
2022/07/25 10:04:04;;;;;;;2.42;1.92;;;24.20;99.90;;;;;;5000845;28;20125;-68
2022/07/25 10:06:45;;;;;;;1.88;1.60;;;24.10;99.90;;;;;;4996905;28;20042;-68
2022/07/25 10:09:12;;;;;;;;;;;24.00;99.90;;;;;;4998089;28;20096;-71
2022/07/25 10:11:40;;;;;;;2.42;2.22;;;23.80;99.90;;;;;;5001410;28;20308;-69
2022/07/25 10:14:11;;;;;;;4.32;2.15;;;23.60;99.90;;;;;;4999554;28;20096;-69
2022/07/25 10:16:46;;;;;;;3.17;2.45;;;23.40;99.90;;;;;;4990128;28;20136;-69
2022/07/25 10:19:13;;;;;;;2.90;2.08;;;23.30;99.90;;;;;;4998327;28;20042;-69
2022/07/25 10:21:41;;;;;;;3.22;1.95;;;23.20;99.90;;;;;;4995830;28;20105;-69
2022/07/25 10:24:09;;;;;;;2.38;2.22;;;23.30;99.90;;;;;;4999064;28;20054;-69
2022/07/25 10:26:49;;;;;;;2.75;1.95;;;23.20;99.90;;;;;;5000931;28;20074;-72
2022/07/25 10:29:16;;;;;;;1.80;1.70;;;23.20;99.90;;;;;;4992971;28;20444;-70
2022/07/25 10:31:44;;;;;;;3.05;1.73;;;23.20;99.90;;;;;;4994649;28;20149;-68
2022/07/25 10:34:30;;;;;;;2.78;2.20;;;23.20;99.90;;;;;;4999278;28;20084;-71
2022/07/25 10:37:09;;;;;;;3.53;2.17;;;23.30;99.90;;;;;;4999710;28;20081;-69
2022/07/25 10:39:43;;;;;;;3.25;2.03;;;23.20;99.90;;;;;;5000384;28;20050;-72
2022/07/25 10:42:15;;;;;;;5.35;2.25;;;23.20;99.90;;;;;;4998536;28;20098;-68
2022/07/25 10:44:47;;;;;;;4.05;2.42;;;23.20;99.90;;;;;;4997026;28;20062;-73
2022/07/25 10:47:15;;;;;;;6.20;2.47;;;23.40;99.90;;;;;;4994158;28;20095;-72
2022/07/25 10:49:46;;;;;;;4.50;1.83;;;23.40;99.90;;;;;;4992342;28;20047;-68
2022/07/25 10:52:41;;;;;;;5.22;2.47;;;23.40;99.90;;;;;;4984586;28;20048;-70
2022/07/25 10:55:08;;;;;;;5.85;2.60;;;23.20;99.90;;;;;;4981217;28;20042;-68
2022/07/25 10:57:35;;;;;;;3.22;2.10;;;23.20;99.90;;;;;;4983928;28;20057;-70
2022/07/25 11:00:20;;;;;;;2.70;2.50;;;23.30;99.90;;;;;;4979478;28;20196;-74
2022/07/25 11:02:49;;;;;;;3.70;2.25;;;23.40;99.90;;;;;;4981882;28;20537;-69
2022/07/25 11:05:16;;;;;;;2.20;2.08;;;23.50;99.90;;;;;;4992718;28;20061;-69
2022/07/25 11:07:53;;;;;;;3.15;2.33;;;23.50;99.90;;;;;;4999887;28;20573;-71
2022/07/25 11:10:40;;;;;;;3.85;2.45;;;23.70;99.90;;;;;;4999466;28;20129;-67
2022/07/25 11:13:14;;;;;;;2.78;2.50;;;23.90;99.90;;;;;;4992964;28;20077;-68
2022/07/25 11:15:42;;;;;;;4.88;3.08;;;23.90;99.90;;;;;;5000538;28;20043;-68
2022/07/25 11:18:10;;;;;;;5.65;2.13;;;24.00;99.90;;;;;;4999575;28;20132;-72
2022/07/25 11:20:37;;;;;;;4.63;2.00;;;24.20;99.90;;;;;;4987353;28;20101;-70
2022/07/25 11:23:04;;;;;;;2.17;1.88;;;24.40;99.90;;;;;;4985236;28;20507;-71
2022/07/25 11:25:31;;;;;;;2.63;2.42;;;24.60;99.90;;;;;;4992295;28;20124;-70
2022/07/25 11:27:59;;;;;;;2.45;1.90;;;24.60;99.90;;;;;;4999381;28;20073;-69
2022/07/25 11:30:28;;;;;;;2.65;2.22;;;24.70;99.90;;;;;;4994505;28;20058;-70
2022/07/25 11:32:58;;;;;;;3.70;3.00;;;24.80;99.90;;;;;;4998091;28;20057;-73
2022/07/25 11:35:30;;;;;;;1.80;1.70;;;24.60;99.90;;;;;;4995634;28;20169;-69
2022/07/25 11:38:01;;;;;;;2.22;2.03;;;24.60;99.90;;;;;;5004230;28;20057;-70
2022/07/25 11:40:31;;;;;;;3.58;1.88;;;24.40;99.90;;;;;;5004013;28;20045;-70
2022/07/25 11:42:58;;;;;;;1.83;1.70;;;24.20;99.90;;;;;;5000050;28;20210;-68
2022/07/25 11:45:33;;;;;;;2.63;2.42;;;24.10;99.90;;;;;;4996645;28;20457;-69
2022/07/25 11:48:08;;;;;;;3.55;1.65;;;24.00;99.90;;;;;;5000586;28;20052;-68
2022/07/25 11:50:37;;;;;;;1.85;1.75;;;23.80;99.90;;;;;;5001693;28;20120;-69
2022/07/25 11:53:07;;;;;;;2.28;1.92;;;23.70;99.90;;;;;;4998462;28;20096;-68
2022/07/25 11:55:36;;;;;;;4.55;2.90;;;23.70;99.90;;;;;;5006299;28;20065;-68
2022/07/25 11:58:04;;;;;;;1.98;1.83;;;23.60;99.90;;;;;;5003563;28;20416;-71
2022/07/25 12:00:39;;;;;;;1.83;1.73;;;23.70;99.90;;;;;;4999342;28;20094;-69
2022/07/25 12:03:08;;;;;;;2.10;1.85;;;23.70;99.90;;;;;;4993089;28;20051;-68
2022/07/25 12:05:35;;;;;;;1.67;1.58;;;23.90;99.90;;;;;;4997615;28;20388;-68
2022/07/25 12:08:09;;;;;;;5.28;2.10;;;24.00;99.90;;;;;;4993935;28;20634;-69
2022/07/25 12:10:39;;;;;;;2.75;2.10;;;24.30;99.90;;;;;;5000871;28;20445;-70
2022/07/25 12:13:08;;;;;;;2.88;2.67;;;24.50;99.90;;;;;;5001178;28;20156;-68
2022/07/25 12:15:39;;;;;;;2.33;2.10;;;24.70;99.90;;;;;;5001601;28;20487;-69
2022/07/25 12:18:11;;;;;;;2.95;1.65;;;25.20;99.90;;;;;;5005518;28;20800;-70
2022/07/25 12:20:41;;;;;;;2.10;1.90;;;25.70;99.90;;;;;;5004645;28;20068;-68
2022/07/25 12:23:11;;;;;;;2.60;2.10;;;26.20;99.90;;;;;;4996959;28;20081;-69
2022/07/25 12:25:41;;;;;;;4.30;2.13;;;26.50;99.90;;;;;;4990984;28;20050;-69
2022/07/25 12:28:09;;;;;;;;;;;26.40;99.90;;;;;;4994636;28;20415;-68
2022/07/25 12:30:38;;;;;;;2.20;1.70;;;26.30;99.90;;;;;;4994741;28;19991;-68
2022/07/25 12:33:05;;;;;;;2.70;2.13;;;26.20;99.90;;;;;;4999376;28;20070;-69
2022/07/25 12:35:33;;;;;;;1.95;1.60;;;26.20;99.90;;;;;;4993665;28;20073;-70
2022/07/25 12:38:00;;;;;;;1.90;1.75;;;26.00;99.90;;;;;;5003360;28;20050;-69
2022/07/25 12:40:27;;;;;;;2.28;2.08;;;26.00;99.90;;;;;;4994785;28;20041;-73
2022/07/25 12:42:54;;;;;;;3.00;1.52;;;26.10;99.90;;;;;;4996216;28;20101;-69
2022/07/25 12:45:21;;;;;;;2.25;1.80;;;25.80;99.90;;;;;;4995429;28;20507;-71
2022/07/25 12:47:49;;;;;;;4.00;2.97;;;25.50;99.90;;;;;;5005433;28;20045;-68
2022/07/25 12:50:19;;;;;;;2.90;2.17;;;25.30;99.90;;;;;;5000064;28;20092;-69
2022/07/25 12:52:46;;;;;;;;;;;25.20;99.90;;;;;;5006504;28;20046;-72
2022/07/25 12:55:16;;;;;;;1.63;1.40;;;25.10;99.90;;;;;;4998353;28;20012;-70
2022/07/25 12:57:44;;;;;;;2.33;2.13;;;25.30;99.90;;;;;;5000598;28;20388;-69